This is the latest recevied weather packets stored in our database for station/object IR4UCA-3. If no packets are shown the sender has not sent any weather packets the latest 1 day(s).
| Time | Temp. | Humidity | Pressure | Rain* | Wind** | Luminosity | Snow |
|---|---|---|---|---|---|---|---|
| 1836274747 | 20° C | 83% | 1024.5 hPa | 0 mm | 1.34 m/s, 238° | - | - |
| 1836274623 | 20° C | 83% | 1024.6 hPa | 0 mm | 1.34 m/s, 186° | - | - |
| 1836274503 | 20° C | 83% | 1024.6 hPa | 0 mm | 1.34 m/s, 203° | - | - |
| 1836274479 | 20° C | 83% | 1024.6 hPa | 0 mm | 1.79 m/s, 202° | - | - |
| 1836274390 | 20° C | 83% | 1024.6 hPa | 0 mm | 1.79 m/s, 182° | - | - |
| 1836274358 | 20° C | 83% | 1024.5 hPa | 0 mm | 1.79 m/s, 212° | - | - |
| 1836274263 | 20° C | 83% | 1024.7 hPa | 0 mm | 1.79 m/s, 214° | - | - |
| 1836274246 | 20° C | 83% | 1024.5 hPa | 0 mm | 2.24 m/s, 200° | - | - |
| 1836274145 | 20° C | 83% | 1024.7 hPa | 0 mm | 2.68 m/s, 212° | - | - |
| 1836274118 | 20° C | 83% | 1024.5 hPa | 0 mm | 1.34 m/s, 214° | - | - |
| 1836274030 | 20° C | 83% | 1024.7 hPa | 0 mm | 2.24 m/s, 204° | - | - |
| 1836273901 | 20° C | 84% | 1024.7 hPa | 0 mm | 3.13 m/s, 190° | - | - |
| 1778005134 | 18.89° C | 84% | 1011.4 hPa | 0 mm | 0.89 m/s, 6° | - | - |
| 1778005012 | 18.89° C | 83% | 1011.4 hPa | 0 mm | 1.34 m/s, 4° | - | - |
| 1778004889 | 18.89° C | 83% | 1011.3 hPa | 0 mm | 1.34 m/s, 0° | - | - |
| 1778004768 | 18.89° C | 83% | 1011.3 hPa | 0 mm | 1.79 m/s, 1° | - | - |
| 1778004648 | 18.89° C | 84% | 1011.3 hPa | 0 mm | 1.79 m/s, 0° | - | - |
| 1778004527 | 18.89° C | 84% | 1011.3 hPa | 0 mm | 1.34 m/s, 0° | - | - |
| 1778004402 | 18.89° C | 83% | 1011.3 hPa | 0 mm | 2.24 m/s, 358° | - | - |
| 1778004281 | 18.89° C | 84% | 1011.4 hPa | 0 mm | 1.79 m/s, 0° | - | - |
| 1778004164 | 18.89° C | 83% | 1011.3 hPa | 0 mm | 2.24 m/s, 354° | - | - |
| 1778004051 | 18.89° C | 83% | 1011.3 hPa | 0 mm | 2.24 m/s, 0° | - | - |
| 1778003919 | 18.89° C | 83% | 1011.4 hPa | 0 mm | 2.24 m/s, 6° | - | - |
| 1778003798 | 18.89° C | 83% | 1011.3 hPa | 0 mm | 2.24 m/s, 0° | - | - |
| 1778003674 | 18.89° C | 83% | 1011.4 hPa | 0 mm | 2.24 m/s, 4° | - | - |
* Rain latest hour (hover to see other rain measurements)
** Current wind speed in m/s (hover to see current wind gust speed)